sensor_id;sensor_type;location;lat;lon;timestamp;P1;durP1;ratioP1;P2;durP2;ratioP2
55216;SDS011;41086;46.736;15.666;2022-11-20T00:00:51;30.42;;;14.35;;
55216;SDS011;41086;46.736;15.666;2022-11-20T00:03:18;44.38;;;19.92;;
55216;SDS011;41086;46.736;15.666;2022-11-20T00:05:45;42.25;;;19.73;;
55216;SDS011;41086;46.736;15.666;2022-11-20T00:08:12;51.17;;;20.00;;
55216;SDS011;41086;46.736;15.666;2022-11-20T00:10:39;41.20;;;18.98;;
55216;SDS011;41086;46.736;15.666;2022-11-20T00:13:06;43.35;;;17.73;;
55216;SDS011;41086;46.736;15.666;2022-11-20T00:15:34;42.90;;;19.30;;
55216;SDS011;41086;46.736;15.666;2022-11-20T00:18:00;42.50;;;20.08;;
55216;SDS011;41086;46.736;15.666;2022-11-20T00:20:27;49.20;;;20.02;;
55216;SDS011;41086;46.736;15.666;2022-11-20T00:22:54;54.17;;;20.40;;
55216;SDS011;41086;46.736;15.666;2022-11-20T00:27:48;50.90;;;20.45;;
55216;SDS011;41086;46.736;15.666;2022-11-20T00:30:14;58.67;;;21.10;;
55216;SDS011;41086;46.736;15.666;2022-11-20T00:32:41;42.53;;;17.58;;
55216;SDS011;41086;46.736;15.666;2022-11-20T00:35:08;38.97;;;16.65;;
55216;SDS011;41086;46.736;15.666;2022-11-20T00:37:35;34.97;;;15.52;;
55216;SDS011;41086;46.736;15.666;2022-11-20T00:40:01;43.50;;;19.77;;
55216;SDS011;41086;46.736;15.666;2022-11-20T00:42:28;39.40;;;16.15;;
55216;SDS011;41086;46.736;15.666;2022-11-20T00:44:55;45.22;;;16.38;;
55216;SDS011;41086;46.736;15.666;2022-11-20T00:47:22;47.83;;;18.42;;
55216;SDS011;41086;46.736;15.666;2022-11-20T00:49:48;38.33;;;14.32;;
55216;SDS011;41086;46.736;15.666;2022-11-20T00:52:15;49.58;;;17.73;;
55216;SDS011;41086;46.736;15.666;2022-11-20T00:54:42;33.97;;;13.73;;
55216;SDS011;41086;46.736;15.666;2022-11-20T00:57:08;31.70;;;13.70;;
55216;SDS011;41086;46.736;15.666;2022-11-20T00:59:35;34.38;;;12.10;;
55216;SDS011;41086;46.736;15.666;2022-11-20T01:02:02;37.10;;;16.20;;
55216;SDS011;41086;46.736;15.666;2022-11-20T01:04:29;34.50;;;13.85;;
55216;SDS011;41086;46.736;15.666;2022-11-20T01:06:55;38.00;;;15.30;;
55216;SDS011;41086;46.736;15.666;2022-11-20T01:09:22;32.13;;;14.88;;
55216;SDS011;41086;46.736;15.666;2022-11-20T01:11:49;25.20;;;12.30;;
55216;SDS011;41086;46.736;15.666;2022-11-20T01:14:17;36.58;;;15.90;;
55216;SDS011;41086;46.736;15.666;2022-11-20T01:16:47;38.00;;;15.45;;
55216;SDS011;41086;46.736;15.666;2022-11-20T01:19:17;33.90;;;15.30;;
55216;SDS011;41086;46.736;15.666;2022-11-20T01:21:50;47.38;;;17.83;;
55216;SDS011;41086;46.736;15.666;2022-11-20T01:24:23;36.13;;;16.08;;
55216;SDS011;41086;46.736;15.666;2022-11-20T01:26:55;36.20;;;15.40;;
55216;SDS011;41086;46.736;15.666;2022-11-20T01:31:51;33.95;;;15.13;;
55216;SDS011;41086;46.736;15.666;2022-11-20T01:34:26;33.90;;;16.67;;
55216;SDS011;41086;46.736;15.666;2022-11-20T01:36:54;47.72;;;19.02;;
55216;SDS011;41086;46.736;15.666;2022-11-20T01:39:23;37.83;;;16.13;;
55216;SDS011;41086;46.736;15.666;2022-11-20T01:41:52;34.28;;;14.98;;
55216;SDS011;41086;46.736;15.666;2022-11-20T01:47:39;41.95;;;17.40;;
55216;SDS011;41086;46.736;15.666;2022-11-20T01:50:22;46.80;;;18.77;;
55216;SDS011;41086;46.736;15.666;2022-11-20T01:52:57;41.55;;;17.67;;
55216;SDS011;41086;46.736;15.666;2022-11-20T01:55:32;35.70;;;14.35;;
55216;SDS011;41086;46.736;15.666;2022-11-20T01:58:07;35.97;;;15.00;;
55216;SDS011;41086;46.736;15.666;2022-11-20T02:00:35;52.35;;;19.02;;
55216;SDS011;41086;46.736;15.666;2022-11-20T02:05:45;43.75;;;16.08;;
55216;SDS011;41086;46.736;15.666;2022-11-20T02:08:15;31.75;;;15.70;;
55216;SDS011;41086;46.736;15.666;2022-11-20T02:10:43;38.55;;;16.33;;
55216;SDS011;41086;46.736;15.666;2022-11-20T02:13:10;41.30;;;17.30;;
55216;SDS011;41086;46.736;15.666;2022-11-20T02:15:55;40.63;;;17.55;;
55216;SDS011;41086;46.736;15.666;2022-11-20T02:18:22;42.33;;;17.48;;
55216;SDS011;41086;46.736;15.666;2022-11-20T02:20:52;36.25;;;15.48;;
55216;SDS011;41086;46.736;15.666;2022-11-20T02:23:26;36.38;;;16.63;;
55216;SDS011;41086;46.736;15.666;2022-11-20T02:25:59;41.85;;;17.45;;
55216;SDS011;41086;46.736;15.666;2022-11-20T02:28:29;42.72;;;16.85;;
55216;SDS011;41086;46.736;15.666;2022-11-20T02:30:56;34.92;;;15.93;;
55216;SDS011;41086;46.736;15.666;2022-11-20T02:33:23;38.15;;;14.73;;
55216;SDS011;41086;46.736;15.666;2022-11-20T02:35:50;34.22;;;15.32;;
55216;SDS011;41086;46.736;15.666;2022-11-20T02:38:17;37.78;;;16.70;;
55216;SDS011;41086;46.736;15.666;2022-11-20T02:40:44;37.33;;;15.15;;
55216;SDS011;41086;46.736;15.666;2022-11-20T02:43:11;36.50;;;16.00;;
55216;SDS011;41086;46.736;15.666;2022-11-20T02:48:05;42.83;;;16.23;;
55216;SDS011;41086;46.736;15.666;2022-11-20T02:50:32;39.25;;;17.05;;
55216;SDS011;41086;46.736;15.666;2022-11-20T02:52:59;47.45;;;18.45;;
55216;SDS011;41086;46.736;15.666;2022-11-20T02:55:26;40.28;;;17.02;;
55216;SDS011;41086;46.736;15.666;2022-11-20T02:57:53;43.55;;;18.02;;
55216;SDS011;41086;46.736;15.666;2022-11-20T03:00:19;42.42;;;19.35;;
55216;SDS011;41086;46.736;15.666;2022-11-20T03:02:47;39.38;;;16.67;;
55216;SDS011;41086;46.736;15.666;2022-11-20T03:05:14;31.15;;;13.85;;
55216;SDS011;41086;46.736;15.666;2022-11-20T03:07:42;34.35;;;14.75;;
55216;SDS011;41086;46.736;15.666;2022-11-20T03:10:10;33.22;;;15.43;;
55216;SDS011;41086;46.736;15.666;2022-11-20T03:12:36;39.22;;;17.55;;
55216;SDS011;41086;46.736;15.666;2022-11-20T03:15:03;32.72;;;14.80;;
55216;SDS011;41086;46.736;15.666;2022-11-20T03:19:57;32.78;;;14.52;;
55216;SDS011;41086;46.736;15.666;2022-11-20T03:22:24;36.80;;;17.02;;
55216;SDS011;41086;46.736;15.666;2022-11-20T03:24:50;28.73;;;14.00;;
55216;SDS011;41086;46.736;15.666;2022-11-20T03:27:18;38.78;;;15.90;;
55216;SDS011;41086;46.736;15.666;2022-11-20T03:29:44;32.95;;;14.07;;
55216;SDS011;41086;46.736;15.666;2022-11-20T03:32:11;34.95;;;15.60;;
55216;SDS011;41086;46.736;15.666;2022-11-20T03:34:38;32.10;;;15.20;;
55216;SDS011;41086;46.736;15.666;2022-11-20T03:37:05;37.97;;;17.27;;
55216;SDS011;41086;46.736;15.666;2022-11-20T03:39:32;42.42;;;16.50;;
55216;SDS011;41086;46.736;15.666;2022-11-20T03:41:59;39.85;;;16.02;;
55216;SDS011;41086;46.736;15.666;2022-11-20T03:44:25;46.30;;;19.27;;
55216;SDS011;41086;46.736;15.666;2022-11-20T03:46:52;31.95;;;14.38;;
55216;SDS011;41086;46.736;15.666;2022-11-20T03:49:19;40.55;;;17.15;;
55216;SDS011;41086;46.736;15.666;2022-11-20T03:51:46;41.53;;;16.98;;
55216;SDS011;41086;46.736;15.666;2022-11-20T03:54:13;33.38;;;14.60;;
55216;SDS011;41086;46.736;15.666;2022-11-20T03:56:40;39.65;;;14.32;;
55216;SDS011;41086;46.736;15.666;2022-11-20T03:59:09;31.85;;;13.63;;
55216;SDS011;41086;46.736;15.666;2022-11-20T04:01:36;42.65;;;15.90;;
55216;SDS011;41086;46.736;15.666;2022-11-20T04:04:13;29.77;;;13.55;;
55216;SDS011;41086;46.736;15.666;2022-11-20T04:06:40;40.20;;;15.75;;
55216;SDS011;41086;46.736;15.666;2022-11-20T04:09:07;31.67;;;13.95;;
55216;SDS011;41086;46.736;15.666;2022-11-20T04:11:34;31.30;;;12.82;;
55216;SDS011;41086;46.736;15.666;2022-11-20T04:14:03;28.55;;;12.77;;
55216;SDS011;41086;46.736;15.666;2022-11-20T04:16:33;30.40;;;13.88;;
55216;SDS011;41086;46.736;15.666;2022-11-20T04:19:02;33.13;;;13.20;;
55216;SDS011;41086;46.736;15.666;2022-11-20T04:21:31;29.48;;;12.30;;
55216;SDS011;41086;46.736;15.666;2022-11-20T04:23:58;31.80;;;14.40;;
55216;SDS011;41086;46.736;15.666;2022-11-20T04:26:25;23.35;;;10.27;;
55216;SDS011;41086;46.736;15.666;2022-11-20T04:28:53;33.08;;;13.57;;
55216;SDS011;41086;46.736;15.666;2022-11-20T04:31:22;28.52;;;13.05;;
55216;SDS011;41086;46.736;15.666;2022-11-20T04:33:53;30.80;;;13.63;;
55216;SDS011;41086;46.736;15.666;2022-11-20T04:36:24;21.00;;;10.25;;
55216;SDS011;41086;46.736;15.666;2022-11-20T04:38:53;31.33;;;14.00;;
55216;SDS011;41086;46.736;15.666;2022-11-20T04:41:24;30.42;;;14.52;;
55216;SDS011;41086;46.736;15.666;2022-11-20T04:43:54;33.05;;;13.85;;
55216;SDS011;41086;46.736;15.666;2022-11-20T04:46:26;29.52;;;13.75;;
55216;SDS011;41086;46.736;15.666;2022-11-20T04:48:53;42.22;;;16.15;;
55216;SDS011;41086;46.736;15.666;2022-11-20T04:51:20;41.45;;;16.55;;
55216;SDS011;41086;46.736;15.666;2022-11-20T04:53:47;30.25;;;13.32;;
55216;SDS011;41086;46.736;15.666;2022-11-20T04:56:14;28.48;;;13.30;;
55216;SDS011;41086;46.736;15.666;2022-11-20T04:58:41;23.48;;;12.63;;
55216;SDS011;41086;46.736;15.666;2022-11-20T05:01:12;18.52;;;9.18;;
55216;SDS011;41086;46.736;15.666;2022-11-20T05:03:41;22.98;;;9.60;;
55216;SDS011;41086;46.736;15.666;2022-11-20T05:06:09;19.70;;;8.77;;
55216;SDS011;41086;46.736;15.666;2022-11-20T05:08:40;25.98;;;9.25;;
55216;SDS011;41086;46.736;15.666;2022-11-20T05:11:08;32.40;;;11.38;;
55216;SDS011;41086;46.736;15.666;2022-11-20T05:13:46;24.50;;;11.75;;
55216;SDS011;41086;46.736;15.666;2022-11-20T05:16:14;27.17;;;13.15;;
55216;SDS011;41086;46.736;15.666;2022-11-20T05:18:43;27.42;;;13.05;;
55216;SDS011;41086;46.736;15.666;2022-11-20T05:21:10;35.08;;;13.48;;
55216;SDS011;41086;46.736;15.666;2022-11-20T05:26:04;26.80;;;13.13;;
55216;SDS011;41086;46.736;15.666;2022-11-20T05:28:33;30.10;;;12.93;;
55216;SDS011;41086;46.736;15.666;2022-11-20T05:31:06;27.17;;;11.63;;
55216;SDS011;41086;46.736;15.666;2022-11-20T05:33:34;26.80;;;13.43;;
55216;SDS011;41086;46.736;15.666;2022-11-20T05:36:02;28.38;;;12.73;;
55216;SDS011;41086;46.736;15.666;2022-11-20T05:38:30;32.97;;;13.32;;
55216;SDS011;41086;46.736;15.666;2022-11-20T05:41:06;26.27;;;11.32;;
55216;SDS011;41086;46.736;15.666;2022-11-20T05:43:34;27.20;;;12.15;;
55216;SDS011;41086;46.736;15.666;2022-11-20T05:46:02;26.83;;;13.15;;
55216;SDS011;41086;46.736;15.666;2022-11-20T05:48:30;29.40;;;13.60;;
55216;SDS011;41086;46.736;15.666;2022-11-20T05:51:01;26.83;;;11.90;;
55216;SDS011;41086;46.736;15.666;2022-11-20T05:53:29;22.50;;;11.10;;
55216;SDS011;41086;46.736;15.666;2022-11-20T05:56:02;30.42;;;12.27;;
55216;SDS011;41086;46.736;15.666;2022-11-20T05:58:30;28.20;;;13.23;;
55216;SDS011;41086;46.736;15.666;2022-11-20T06:03:32;37.05;;;16.60;;
55216;SDS011;41086;46.736;15.666;2022-11-20T06:05:59;54.47;;;29.95;;
55216;SDS011;41086;46.736;15.666;2022-11-20T06:08:26;41.78;;;15.93;;
55216;SDS011;41086;46.736;15.666;2022-11-20T06:10:55;35.20;;;14.13;;
55216;SDS011;41086;46.736;15.666;2022-11-20T06:13:23;30.60;;;13.77;;
55216;SDS011;41086;46.736;15.666;2022-11-20T06:15:50;28.65;;;14.50;;
55216;SDS011;41086;46.736;15.666;2022-11-20T06:18:17;35.88;;;14.00;;
55216;SDS011;41086;46.736;15.666;2022-11-20T06:23:12;30.92;;;14.18;;
55216;SDS011;41086;46.736;15.666;2022-11-20T06:28:06;33.03;;;14.00;;
55216;SDS011;41086;46.736;15.666;2022-11-20T06:30:33;41.95;;;15.07;;
55216;SDS011;41086;46.736;15.666;2022-11-20T06:33:00;31.13;;;14.18;;
55216;SDS011;41086;46.736;15.666;2022-11-20T06:37:53;32.92;;;14.60;;
55216;SDS011;41086;46.736;15.666;2022-11-20T06:40:22;31.65;;;15.23;;
55216;SDS011;41086;46.736;15.666;2022-11-20T06:42:49;33.28;;;14.18;;
55216;SDS011;41086;46.736;15.666;2022-11-20T06:45:15;30.02;;;13.02;;
55216;SDS011;41086;46.736;15.666;2022-11-20T06:47:42;27.48;;;12.65;;
55216;SDS011;41086;46.736;15.666;2022-11-20T06:50:09;32.80;;;13.40;;
55216;SDS011;41086;46.736;15.666;2022-11-20T06:52:36;31.52;;;13.73;;
55216;SDS011;41086;46.736;15.666;2022-11-20T06:55:08;26.85;;;11.95;;
55216;SDS011;41086;46.736;15.666;2022-11-20T06:57:35;31.80;;;12.75;;
55216;SDS011;41086;46.736;15.666;2022-11-20T07:00:02;24.65;;;12.10;;
55216;SDS011;41086;46.736;15.666;2022-11-20T07:02:29;22.83;;;11.60;;
55216;SDS011;41086;46.736;15.666;2022-11-20T07:04:56;31.73;;;12.38;;
55216;SDS011;41086;46.736;15.666;2022-11-20T07:07:23;31.17;;;13.55;;
55216;SDS011;41086;46.736;15.666;2022-11-20T07:09:49;31.48;;;14.65;;
55216;SDS011;41086;46.736;15.666;2022-11-20T07:12:16;25.42;;;12.90;;
55216;SDS011;41086;46.736;15.666;2022-11-20T07:14:43;27.02;;;12.43;;
55216;SDS011;41086;46.736;15.666;2022-11-20T07:17:10;24.23;;;11.25;;
55216;SDS011;41086;46.736;15.666;2022-11-20T07:19:39;23.83;;;10.88;;
55216;SDS011;41086;46.736;15.666;2022-11-20T07:22:06;23.30;;;10.15;;
55216;SDS011;41086;46.736;15.666;2022-11-20T07:24:33;22.67;;;11.48;;
55216;SDS011;41086;46.736;15.666;2022-11-20T07:27:01;20.88;;;11.05;;
55216;SDS011;41086;46.736;15.666;2022-11-20T07:29:27;26.85;;;11.32;;
55216;SDS011;41086;46.736;15.666;2022-11-20T07:31:54;26.83;;;12.75;;
55216;SDS011;41086;46.736;15.666;2022-11-20T07:34:22;19.98;;;10.30;;
55216;SDS011;41086;46.736;15.666;2022-11-20T07:39:16;18.30;;;8.98;;
55216;SDS011;41086;46.736;15.666;2022-11-20T07:41:42;16.85;;;9.48;;
55216;SDS011;41086;46.736;15.666;2022-11-20T07:44:14;16.48;;;8.35;;
55216;SDS011;41086;46.736;15.666;2022-11-20T07:46:43;19.08;;;9.52;;
55216;SDS011;41086;46.736;15.666;2022-11-20T07:49:10;33.20;;;14.30;;
55216;SDS011;41086;46.736;15.666;2022-11-20T07:51:39;18.65;;;9.55;;
55216;SDS011;41086;46.736;15.666;2022-11-20T07:54:08;22.52;;;11.75;;
55216;SDS011;41086;46.736;15.666;2022-11-20T07:56:36;23.70;;;12.65;;
55216;SDS011;41086;46.736;15.666;2022-11-20T07:59:03;25.02;;;13.90;;
55216;SDS011;41086;46.736;15.666;2022-11-20T08:01:30;29.65;;;12.57;;
55216;SDS011;41086;46.736;15.666;2022-11-20T08:03:59;21.85;;;10.65;;
55216;SDS011;41086;46.736;15.666;2022-11-20T08:06:28;20.10;;;10.52;;
55216;SDS011;41086;46.736;15.666;2022-11-20T08:08:55;19.00;;;9.63;;
55216;SDS011;41086;46.736;15.666;2022-11-20T08:11:23;19.92;;;10.00;;
55216;SDS011;41086;46.736;15.666;2022-11-20T08:14:10;18.30;;;10.00;;
55216;SDS011;41086;46.736;15.666;2022-11-20T08:16:42;16.73;;;9.43;;
55216;SDS011;41086;46.736;15.666;2022-11-20T08:19:12;15.25;;;8.65;;
55216;SDS011;41086;46.736;15.666;2022-11-20T08:21:41;19.05;;;10.80;;
55216;SDS011;41086;46.736;15.666;2022-11-20T08:26:38;17.42;;;9.32;;
55216;SDS011;41086;46.736;15.666;2022-11-20T08:29:06;17.85;;;9.52;;
55216;SDS011;41086;46.736;15.666;2022-11-20T08:31:33;12.75;;;7.95;;
55216;SDS011;41086;46.736;15.666;2022-11-20T08:34:00;15.13;;;8.13;;
55216;SDS011;41086;46.736;15.666;2022-11-20T08:36:35;14.55;;;7.90;;
55216;SDS011;41086;46.736;15.666;2022-11-20T08:39:05;18.38;;;8.98;;
55216;SDS011;41086;46.736;15.666;2022-11-20T08:41:34;8.20;;;5.60;;
55216;SDS011;41086;46.736;15.666;2022-11-20T08:44:08;14.60;;;7.65;;
55216;SDS011;41086;46.736;15.666;2022-11-20T08:46:39;16.00;;;5.70;;
55216;SDS011;41086;46.736;15.666;2022-11-20T08:49:11;17.90;;;8.10;;
55216;SDS011;41086;46.736;15.666;2022-11-20T08:51:39;15.48;;;7.60;;
55216;SDS011;41086;46.736;15.666;2022-11-20T08:54:07;16.98;;;8.90;;
55216;SDS011;41086;46.736;15.666;2022-11-20T08:56:35;17.55;;;10.40;;
55216;SDS011;41086;46.736;15.666;2022-11-20T08:59:02;13.85;;;8.25;;
55216;SDS011;41086;46.736;15.666;2022-11-20T09:01:49;15.60;;;8.52;;
55216;SDS011;41086;46.736;15.666;2022-11-20T09:04:16;13.38;;;8.20;;
55216;SDS011;41086;46.736;15.666;2022-11-20T09:06:43;14.60;;;8.38;;
55216;SDS011;41086;46.736;15.666;2022-11-20T09:09:11;14.45;;;8.95;;
55216;SDS011;41086;46.736;15.666;2022-11-20T09:11:38;13.02;;;8.05;;
55216;SDS011;41086;46.736;15.666;2022-11-20T09:14:05;14.15;;;8.50;;
55216;SDS011;41086;46.736;15.666;2022-11-20T09:16:32;13.23;;;8.73;;
55216;SDS011;41086;46.736;15.666;2022-11-20T09:18:59;13.57;;;8.23;;
55216;SDS011;41086;46.736;15.666;2022-11-20T09:21:46;13.05;;;7.40;;
55216;SDS011;41086;46.736;15.666;2022-11-20T09:24:12;15.55;;;7.05;;
55216;SDS011;41086;46.736;15.666;2022-11-20T09:26:39;14.23;;;7.70;;
55216;SDS011;41086;46.736;15.666;2022-11-20T09:29:06;11.65;;;7.10;;
55216;SDS011;41086;46.736;15.666;2022-11-20T09:31:32;12.40;;;6.00;;
55216;SDS011;41086;46.736;15.666;2022-11-20T09:34:00;11.13;;;6.38;;
55216;SDS011;41086;46.736;15.666;2022-11-20T09:36:36;11.77;;;7.03;;
55216;SDS011;41086;46.736;15.666;2022-11-20T09:39:10;16.10;;;9.18;;
55216;SDS011;41086;46.736;15.666;2022-11-20T09:44:38;13.88;;;8.13;;
55216;SDS011;41086;46.736;15.666;2022-11-20T09:47:23;12.40;;;8.05;;
55216;SDS011;41086;46.736;15.666;2022-11-20T09:53:11;8.35;;;4.35;;
55216;SDS011;41086;46.736;15.666;2022-11-20T09:55:39;11.68;;;6.25;;
55216;SDS011;41086;46.736;15.666;2022-11-20T09:58:06;12.23;;;6.78;;
55216;SDS011;41086;46.736;15.666;2022-11-20T10:00:40;13.02;;;6.75;;
55216;SDS011;41086;46.736;15.666;2022-11-20T10:05:51;11.00;;;6.55;;
55216;SDS011;41086;46.736;15.666;2022-11-20T10:08:24;14.93;;;7.07;;
55216;SDS011;41086;46.736;15.666;2022-11-20T10:25:14;11.60;;;6.43;;
55216;SDS011;41086;46.736;15.666;2022-11-20T10:27:55;11.80;;;6.97;;
55216;SDS011;41086;46.736;15.666;2022-11-20T10:30:25;11.63;;;6.65;;
55216;SDS011;41086;46.736;15.666;2022-11-20T10:33:12;9.30;;;5.68;;
55216;SDS011;41086;46.736;15.666;2022-11-20T10:35:44;10.32;;;6.10;;
55216;SDS011;41086;46.736;15.666;2022-11-20T10:39:00;9.65;;;6.30;;
55216;SDS011;41086;46.736;15.666;2022-11-20T10:41:16;8.60;;;5.70;;
55216;SDS011;41086;46.736;15.666;2022-11-20T10:44:33;13.82;;;7.57;;
55216;SDS011;41086;46.736;15.666;2022-11-20T10:47:03;11.48;;;7.18;;
55216;SDS011;41086;46.736;15.666;2022-11-20T10:49:30;12.77;;;7.15;;
55216;SDS011;41086;46.736;15.666;2022-11-20T10:52:06;12.00;;;6.75;;
55216;SDS011;41086;46.736;15.666;2022-11-20T10:54:47;10.35;;;6.25;;
55216;SDS011;41086;46.736;15.666;2022-11-20T10:57:50;13.63;;;6.53;;
55216;SDS011;41086;46.736;15.666;2022-11-20T11:00:36;11.27;;;6.03;;
55216;SDS011;41086;46.736;15.666;2022-11-20T11:03:07;9.20;;;5.13;;
55216;SDS011;41086;46.736;15.666;2022-11-20T11:05:51;11.15;;;6.32;;
55216;SDS011;41086;46.736;15.666;2022-11-20T11:08:23;11.77;;;6.28;;
55216;SDS011;41086;46.736;15.666;2022-11-20T11:10:55;11.02;;;6.60;;
55216;SDS011;41086;46.736;15.666;2022-11-20T11:13:27;9.52;;;5.35;;
55216;SDS011;41086;46.736;15.666;2022-11-20T11:15:56;10.70;;;6.85;;
55216;SDS011;41086;46.736;15.666;2022-11-20T11:18:25;11.68;;;6.65;;
55216;SDS011;41086;46.736;15.666;2022-11-20T11:20:56;12.50;;;6.70;;
55216;SDS011;41086;46.736;15.666;2022-11-20T11:23:28;9.45;;;6.05;;
55216;SDS011;41086;46.736;15.666;2022-11-20T11:26:01;9.45;;;5.53;;
55216;SDS011;41086;46.736;15.666;2022-11-20T11:28:30;12.50;;;7.75;;
55216;SDS011;41086;46.736;15.666;2022-11-20T11:30:57;10.18;;;6.32;;
55216;SDS011;41086;46.736;15.666;2022-11-20T11:33:28;10.60;;;6.55;;
55216;SDS011;41086;46.736;15.666;2022-11-20T11:35:58;13.52;;;7.43;;
55216;SDS011;41086;46.736;15.666;2022-11-20T11:38:29;10.85;;;7.00;;
55216;SDS011;41086;46.736;15.666;2022-11-20T11:41:00;9.48;;;6.63;;
55216;SDS011;41086;46.736;15.666;2022-11-20T11:43:28;8.75;;;6.10;;
55216;SDS011;41086;46.736;15.666;2022-11-20T11:48:59;9.48;;;5.65;;
55216;SDS011;41086;46.736;15.666;2022-11-20T11:51:28;9.05;;;5.68;;
55216;SDS011;41086;46.736;15.666;2022-11-20T11:53:59;11.57;;;6.50;;
55216;SDS011;41086;46.736;15.666;2022-11-20T11:56:29;10.90;;;6.60;;
55216;SDS011;41086;46.736;15.666;2022-11-20T11:59:00;9.45;;;6.45;;
55216;SDS011;41086;46.736;15.666;2022-11-20T12:01:43;17.42;;;7.10;;
55216;SDS011;41086;46.736;15.666;2022-11-20T12:07:10;6.85;;;5.22;;
55216;SDS011;41086;46.736;15.666;2022-11-20T12:10:12;24.00;;;13.57;;
55216;SDS011;41086;46.736;15.666;2022-11-20T12:12:44;13.02;;;8.70;;
55216;SDS011;41086;46.736;15.666;2022-11-20T12:15:16;10.18;;;5.75;;
55216;SDS011;41086;46.736;15.666;2022-11-20T12:17:56;10.05;;;7.07;;
55216;SDS011;41086;46.736;15.666;2022-11-20T12:20:24;9.68;;;5.97;;
55216;SDS011;41086;46.736;15.666;2022-11-20T12:25:36;15.27;;;7.88;;
55216;SDS011;41086;46.736;15.666;2022-11-20T12:33:58;11.60;;;7.35;;
55216;SDS011;41086;46.736;15.666;2022-11-20T12:36:37;9.85;;;6.90;;
55216;SDS011;41086;46.736;15.666;2022-11-20T12:42:17;32.03;;;19.70;;
55216;SDS011;41086;46.736;15.666;2022-11-20T12:45:36;10.48;;;6.90;;
55216;SDS011;41086;46.736;15.666;2022-11-20T13:00:24;10.68;;;6.68;;
55216;SDS011;41086;46.736;15.666;2022-11-20T13:02:55;9.02;;;6.45;;
55216;SDS011;41086;46.736;15.666;2022-11-20T13:08:03;5.95;;;4.38;;
55216;SDS011;41086;46.736;15.666;2022-11-20T13:10:37;11.20;;;6.57;;
55216;SDS011;41086;46.736;15.666;2022-11-20T13:13:23;8.27;;;5.53;;
55216;SDS011;41086;46.736;15.666;2022-11-20T13:18:55;13.52;;;6.82;;
55216;SDS011;41086;46.736;15.666;2022-11-20T13:21:40;7.82;;;5.47;;
55216;SDS011;41086;46.736;15.666;2022-11-20T13:26:46;12.93;;;7.88;;
55216;SDS011;41086;46.736;15.666;2022-11-20T13:29:17;9.10;;;5.72;;
55216;SDS011;41086;46.736;15.666;2022-11-20T13:31:45;10.23;;;5.82;;
55216;SDS011;41086;46.736;15.666;2022-11-20T13:34:24;11.48;;;6.32;;
55216;SDS011;41086;46.736;15.666;2022-11-20T13:36:53;8.77;;;5.65;;
55216;SDS011;41086;46.736;15.666;2022-11-20T13:39:25;9.80;;;5.05;;
55216;SDS011;41086;46.736;15.666;2022-11-20T13:41:58;12.32;;;7.65;;
55216;SDS011;41086;46.736;15.666;2022-11-20T13:44:55;12.68;;;7.78;;
55216;SDS011;41086;46.736;15.666;2022-11-20T13:47:27;12.05;;;7.63;;
55216;SDS011;41086;46.736;15.666;2022-11-20T13:49:55;8.25;;;6.13;;
55216;SDS011;41086;46.736;15.666;2022-11-20T14:00:21;10.82;;;7.20;;
55216;SDS011;41086;46.736;15.666;2022-11-20T14:05:34;9.32;;;6.60;;
55216;SDS011;41086;46.736;15.666;2022-11-20T14:08:27;10.77;;;7.20;;
55216;SDS011;41086;46.736;15.666;2022-11-20T14:11:11;14.50;;;8.88;;
55216;SDS011;41086;46.736;15.666;2022-11-20T14:13:39;9.73;;;6.63;;
55216;SDS011;41086;46.736;15.666;2022-11-20T14:16:06;12.80;;;9.07;;
55216;SDS011;41086;46.736;15.666;2022-11-20T14:18:32;9.52;;;7.20;;
55216;SDS011;41086;46.736;15.666;2022-11-20T14:21:02;9.57;;;6.68;;
55216;SDS011;41086;46.736;15.666;2022-11-20T14:23:30;10.23;;;6.68;;
55216;SDS011;41086;46.736;15.666;2022-11-20T14:25:57;9.77;;;6.35;;
55216;SDS011;41086;46.736;15.666;2022-11-20T14:28:28;14.32;;;7.57;;
55216;SDS011;41086;46.736;15.666;2022-11-20T14:30:56;15.98;;;9.25;;
55216;SDS011;41086;46.736;15.666;2022-11-20T14:33:25;13.95;;;10.27;;
55216;SDS011;41086;46.736;15.666;2022-11-20T14:35:56;12.60;;;7.68;;
55216;SDS011;41086;46.736;15.666;2022-11-20T14:38:25;13.20;;;8.60;;
55216;SDS011;41086;46.736;15.666;2022-11-20T14:40:54;11.60;;;7.88;;
55216;SDS011;41086;46.736;15.666;2022-11-20T14:43:32;15.65;;;9.88;;
55216;SDS011;41086;46.736;15.666;2022-11-20T14:46:05;17.17;;;10.95;;
55216;SDS011;41086;46.736;15.666;2022-11-20T14:51:35;21.95;;;12.70;;
55216;SDS011;41086;46.736;15.666;2022-11-20T14:54:17;15.57;;;9.43;;
55216;SDS011;41086;46.736;15.666;2022-11-20T14:56:54;27.63;;;15.52;;
55216;SDS011;41086;46.736;15.666;2022-11-20T14:59:23;16.00;;;10.85;;
55216;SDS011;41086;46.736;15.666;2022-11-20T15:01:56;14.30;;;10.63;;
55216;SDS011;41086;46.736;15.666;2022-11-20T15:04:27;15.75;;;10.68;;
55216;SDS011;41086;46.736;15.666;2022-11-20T15:06:55;17.58;;;12.10;;
55216;SDS011;41086;46.736;15.666;2022-11-20T15:09:23;16.90;;;9.38;;
55216;SDS011;41086;46.736;15.666;2022-11-20T15:11:56;17.58;;;11.30;;
55216;SDS011;41086;46.736;15.666;2022-11-20T15:14:27;16.30;;;11.20;;
55216;SDS011;41086;46.736;15.666;2022-11-20T15:16:55;18.10;;;11.43;;
55216;SDS011;41086;46.736;15.666;2022-11-20T15:21:54;25.67;;;14.32;;
55216;SDS011;41086;46.736;15.666;2022-11-20T15:24:20;18.17;;;12.35;;
55216;SDS011;41086;46.736;15.666;2022-11-20T15:26:48;22.60;;;13.55;;
55216;SDS011;41086;46.736;15.666;2022-11-20T15:29:17;21.52;;;12.07;;
55216;SDS011;41086;46.736;15.666;2022-11-20T15:31:45;19.65;;;11.65;;
55216;SDS011;41086;46.736;15.666;2022-11-20T15:34:12;22.63;;;13.63;;
55216;SDS011;41086;46.736;15.666;2022-11-20T15:36:42;30.15;;;16.67;;
55216;SDS011;41086;46.736;15.666;2022-11-20T15:39:10;20.42;;;13.15;;
55216;SDS011;41086;46.736;15.666;2022-11-20T15:41:38;20.63;;;13.45;;
55216;SDS011;41086;46.736;15.666;2022-11-20T15:44:05;23.42;;;15.75;;
55216;SDS011;41086;46.736;15.666;2022-11-20T15:46:33;23.63;;;14.65;;
55216;SDS011;41086;46.736;15.666;2022-11-20T15:49:10;52.97;;;20.50;;
55216;SDS011;41086;46.736;15.666;2022-11-20T15:51:47;22.00;;;13.52;;
55216;SDS011;41086;46.736;15.666;2022-11-20T15:54:16;27.33;;;13.88;;
55216;SDS011;41086;46.736;15.666;2022-11-20T15:56:47;27.15;;;15.13;;
55216;SDS011;41086;46.736;15.666;2022-11-20T15:59:15;29.05;;;15.93;;
55216;SDS011;41086;46.736;15.666;2022-11-20T16:01:42;25.35;;;15.75;;
55216;SDS011;41086;46.736;15.666;2022-11-20T16:04:10;61.35;;;34.25;;
55216;SDS011;41086;46.736;15.666;2022-11-20T16:06:38;35.17;;;21.33;;
55216;SDS011;41086;46.736;15.666;2022-11-20T16:09:05;41.88;;;24.52;;
55216;SDS011;41086;46.736;15.666;2022-11-20T16:11:32;30.23;;;18.17;;
55216;SDS011;41086;46.736;15.666;2022-11-20T16:13:59;25.25;;;14.70;;
55216;SDS011;41086;46.736;15.666;2022-11-20T16:16:44;54.35;;;25.48;;
55216;SDS011;41086;46.736;15.666;2022-11-20T16:19:11;34.63;;;20.27;;
55216;SDS011;41086;46.736;15.666;2022-11-20T16:21:39;23.63;;;15.60;;